This is the latest recevied weather packets stored in our database for station/object KD5HIA. If no packets are shown the sender has not sent any weather packets the latest 10 day(s).
| Time | Temp. | Humidity | Pressure | Rain* | Wind** | Luminosity | Snow |
|---|---|---|---|---|---|---|---|
| 1777238117 | 33.33° C | 34% | 1005.8 hPa | 0 mm | - | 362 W/m² | - |
| 1777237517 | 33.33° C | 34% | 1006.1 hPa | 0 mm | - | 362 W/m² | - |
| 1777236917 | 33.33° C | 31% | 1006.2 hPa | 0 mm | - | 362 W/m² | - |
| 1777236317 | 33.33° C | 28% | 1006.2 hPa | 0 mm | - | 362 W/m² | - |
| 1777235717 | 33.33° C | 24% | 1006.4 hPa | 0 mm | - | 362 W/m² | - |
| 1777235117 | 33.33° C | 21% | 1006.5 hPa | 0 mm | - | 418 W/m² | - |
| 1777234521 | 33.89° C | 20% | 1006.7 hPa | 0 mm | - | 548 W/m² | - |
| 1777233921 | 33.89° C | 21% | 1006.9 hPa | 0 mm | - | 885 W/m² | - |
| 1777233321 | 33.89° C | 23% | 1007 hPa | 0 mm | - | 631 W/m² | - |
| 1777232717 | 33.33° C | 24% | 1006.9 hPa | 0 mm | - | 631 W/m² | - |
| 1777232117 | 32.78° C | 26% | 1007 hPa | 0 mm | - | 473 W/m² | - |
| 1777231517 | 33.33° C | 26% | 1007.1 hPa | 0 mm | - | 511 W/m² | - |
| 1777230917 | 33.33° C | 25% | 1007.4 hPa | 0 mm | - | 786 W/m² | - |
| 1777230317 | 33.33° C | 26% | 1007.4 hPa | 0 mm | - | 970 W/m² | - |
| 1777229717 | 32.78° C | 29% | 1007.5 hPa | 0 mm | - | 968 W/m² | - |
| 1777229117 | 31.67° C | 31% | 1007.5 hPa | 0 mm | - | 456 W/m² | - |
| 1777228517 | 31.67° C | 40% | 1007.9 hPa | 0 mm | - | 693 W/m² | - |
| 1777227917 | 31.11° C | 39% | 1007.8 hPa | 0 mm | - | 385 W/m² | - |
| 1777227317 | 30.56° C | 44% | 1008 hPa | 0 mm | - | 429 W/m² | - |
| 1777226717 | 30° C | 53% | 1008.2 hPa | 0 mm | - | 407 W/m² | - |
| 1777226117 | 30° C | 54% | 1008.2 hPa | 0 mm | - | 444 W/m² | - |
| 1777225517 | 29.44° C | 57% | 1008.2 hPa | 0 mm | - | 407 W/m² | - |
| 1777224917 | 29.44° C | 57% | 1008.5 hPa | 0 mm | - | 334 W/m² | - |
| 1777224317 | 30° C | 59% | 1008.7 hPa | 0 mm | - | 691 W/m² | - |
| 1777223717 | 30° C | 61% | 1008.7 hPa | 0 mm | - | 732 W/m² | - |
* Rain latest hour (hover to see other rain measurements)
** Current wind speed in m/s (hover to see current wind gust speed)